createdAt,value
2018-04-15T00:00:29.316Z,99791.48
2018-04-15T00:03:02.628Z,99780.48
2018-04-15T00:05:36.087Z,99777.64
2018-04-15T00:08:09.426Z,99777.42
2018-04-15T00:10:42.641Z,99783.05
2018-04-15T00:13:16.242Z,99780.06
2018-04-15T00:15:49.504Z,99772.96
2018-04-15T00:18:22.966Z,99773.59
2018-04-15T00:20:56.661Z,99775.03
2018-04-15T00:23:30.008Z,99772.89
2018-04-15T00:26:03.251Z,99763.57
2018-04-15T00:28:36.640Z,99758.61
2018-04-15T00:31:09.856Z,99755.16
2018-04-15T00:33:44.409Z,99757.17
2018-04-15T00:36:18.755Z,99752.98
2018-04-15T00:38:51.968Z,99748.13
2018-04-15T00:41:25.621Z,99742.03
2018-04-15T00:43:59.097Z,99750.03
2018-04-15T00:46:32.745Z,99743.41
2018-04-15T00:49:06.030Z,99739.34
2018-04-15T00:51:39.221Z,99739.06
2018-04-15T00:54:19.493Z,99732.27
2018-04-15T00:56:52.867Z,99723.83
2018-04-15T00:59:26.140Z,99719.81
2018-04-15T01:01:59.432Z,99716.30
2018-04-15T01:04:32.644Z,99713.91
2018-04-15T01:07:06.161Z,99705.26
2018-04-15T01:09:39.464Z,99699.69
2018-04-15T01:12:12.751Z,99700.77
2018-04-15T01:14:46.281Z,99690.59
2018-04-15T01:17:19.471Z,99691.19
2018-04-15T01:19:53.444Z,99695.58
2018-04-15T01:22:28.974Z,99692.42
2018-04-15T01:25:02.809Z,99690.44
2018-04-15T01:27:36.038Z,99699.93
2018-04-15T01:30:09.398Z,99696.31
2018-04-15T01:32:42.616Z,99695.73
2018-04-15T01:35:15.766Z,99691.02
2018-04-15T01:37:49.462Z,99684.82
2018-04-15T01:40:22.844Z,99685.14
2018-04-15T01:42:56.047Z,99688.95
2018-04-15T01:45:30.162Z,99683.89
2018-04-15T01:48:03.556Z,99678.38
2018-04-15T01:50:36.710Z,99675.59
2018-04-15T01:53:10.213Z,99676.02
2018-04-15T01:55:44.875Z,99675.86
2018-04-15T01:58:18.338Z,99676.77
2018-04-15T02:00:53.801Z,99676.27
2018-04-15T02:03:27.095Z,99684.34
2018-04-15T02:06:00.662Z,99683.23
2018-04-15T02:08:34.061Z,99680.37
2018-04-15T02:11:07.249Z,99679.96
2018-04-15T02:13:40.508Z,99677.06
2018-04-15T02:16:15.097Z,99674.70
2018-04-15T02:18:48.368Z,99671.95
2018-04-15T02:21:21.882Z,99674.07
2018-04-15T02:23:55.737Z,99667.42
2018-04-15T02:26:29.011Z,99662.75
2018-04-15T02:29:02.434Z,99656.92
2018-04-15T02:31:36.125Z,99657.84
2018-04-15T02:34:09.595Z,99658.48
2018-04-15T02:36:42.825Z,99652.14
2018-04-15T02:39:16.704Z,99656.14
2018-04-15T02:41:50.020Z,99649.88
2018-04-15T02:44:23.635Z,99641.28
2018-04-15T02:46:56.861Z,99635.17
2018-04-15T02:49:31.429Z,99633.02
2018-04-15T02:52:04.728Z,99633.51
2018-04-15T02:54:38.255Z,99626.41
2018-04-15T02:57:11.537Z,99628.34
2018-04-15T02:59:45.043Z,99623.61
2018-04-15T03:02:18.492Z,99622.19
2018-04-15T03:04:51.636Z,99625.02
2018-04-15T03:07:24.810Z,99623.75
2018-04-15T03:09:58.347Z,99607.66
2018-04-15T03:12:31.533Z,99606.70
2018-04-15T03:15:04.710Z,99610.48
2018-04-15T03:17:38.488Z,99612.92
2018-04-15T03:20:11.706Z,99619.26
2018-04-15T03:22:45.060Z,99614.73
2018-04-15T03:25:18.725Z,99617.91
2018-04-15T03:27:52.245Z,99617.91
2018-04-15T03:30:26.064Z,99617.41
2018-04-15T03:32:59.545Z,99615.86
2018-04-15T03:35:32.718Z,99607.05
2018-04-15T03:38:06.028Z,99606.06
2018-04-15T03:40:39.202Z,99615.47
2018-04-15T03:44:42.066Z,99615.93
2018-04-15T03:47:15.320Z,99619.59
2018-04-15T03:49:48.516Z,99626.47
2018-04-15T03:52:21.963Z,99627.08
2018-04-15T03:54:55.321Z,99617.31
2018-04-15T03:57:28.870Z,99619.36
2018-04-15T04:00:02.336Z,99617.75
2018-04-15T04:02:35.570Z,99622.70
2018-04-15T04:05:08.877Z,99618.84
2018-04-15T04:07:42.571Z,99624.61
2018-04-15T04:10:15.817Z,99632.39
2018-04-15T04:12:49.355Z,99627.73
2018-04-15T04:15:22.805Z,99634.14
2018-04-15T04:20:12.634Z,99635.47
2018-04-15T04:22:56.904Z,99632.78
2018-04-15T04:25:35.998Z,99631.44
2018-04-15T04:28:09.765Z,99630.45
2018-04-15T04:30:42.961Z,99620.70
2018-04-15T04:33:16.395Z,99608.45
2018-04-15T04:35:50.007Z,99604.64
2018-04-15T04:38:23.233Z,99604.41
2018-04-15T04:40:56.452Z,99595.41
2018-04-15T04:43:29.897Z,99592.95
2018-04-15T04:46:03.458Z,99602.61
2018-04-15T04:48:36.799Z,99604.34
2018-04-15T04:51:10.497Z,99610.98
2018-04-15T04:53:44.061Z,99604.55
2018-04-15T04:56:17.295Z,99594.82
2018-04-15T04:58:51.057Z,99590.05
2018-04-15T05:01:24.582Z,99582.59
2018-04-15T05:03:58.029Z,99583.62
2018-04-15T05:06:31.806Z,99587.34
2018-04-15T05:09:06.629Z,99577.41
2018-04-15T05:11:40.577Z,99581.00
2018-04-15T05:14:14.664Z,99569.03
2018-04-15T05:16:48.682Z,99560.13
2018-04-15T05:19:25.107Z,99565.78
2018-04-15T05:21:59.446Z,99562.41
2018-04-15T05:24:33.331Z,99559.87
2018-04-15T05:27:07.419Z,99558.77
2018-04-15T05:29:43.035Z,99556.08
2018-04-15T05:32:17.898Z,99544.82
2018-04-15T05:34:51.329Z,99533.33
2018-04-15T05:37:25.061Z,99526.48
2018-04-15T05:40:00.080Z,99509.67
2018-04-15T05:42:33.372Z,99515.41
2018-04-15T05:45:06.944Z,99510.05
2018-04-15T05:47:40.342Z,99506.53
2018-04-15T05:50:13.778Z,99509.04
2018-04-15T05:52:47.340Z,99508.11
2018-04-15T05:55:21.197Z,99504.81
2018-04-15T05:57:54.533Z,99499.28
2018-04-15T06:00:28.402Z,99502.55
2018-04-15T06:03:02.358Z,99503.42
2018-04-15T06:05:36.020Z,99493.52
2018-04-15T06:08:09.255Z,99482.30
2018-04-15T06:10:43.272Z,99488.73
2018-04-15T06:13:18.370Z,99487.70
2018-04-15T06:15:52.108Z,99481.94
2018-04-15T06:18:25.718Z,99479.70
2018-04-15T06:20:59.226Z,99470.09
2018-04-15T06:23:33.166Z,99471.03
2018-04-15T06:26:06.551Z,99469.84
2018-04-15T06:28:39.897Z,99473.57
2018-04-15T06:31:13.566Z,99471.92
2018-04-15T06:33:46.920Z,99469.17
2018-04-15T06:36:20.219Z,99471.41
2018-04-15T06:38:53.550Z,99471.45
2018-04-15T06:41:27.369Z,99470.30
2018-04-15T06:44:00.825Z,99468.83
2018-04-15T06:46:34.363Z,99469.12
2018-04-15T06:49:08.108Z,99462.16
2018-04-15T06:51:41.587Z,99460.40
2018-04-15T06:54:14.965Z,99456.19
2018-04-15T06:56:48.537Z,99454.88
2018-04-15T06:59:21.975Z,99445.31
2018-04-15T07:01:55.592Z,99442.89
2018-04-15T07:04:29.597Z,99434.52
2018-04-15T07:07:02.825Z,99427.49
2018-04-15T07:09:36.691Z,99423.84
2018-04-15T07:12:10.672Z,99414.04
2018-04-15T07:14:44.998Z,99402.20
2018-04-15T07:17:18.539Z,99407.86
2018-04-15T07:19:51.989Z,99395.91
2018-04-15T07:22:25.272Z,99402.44
2018-04-15T07:24:58.680Z,99398.16
2018-04-15T07:27:32.719Z,99388.39
2018-04-15T07:30:06.134Z,99392.70
2018-04-15T07:32:39.384Z,99399.76
2018-04-15T07:35:13.156Z,99394.67
2018-04-15T07:37:46.390Z,99396.89
2018-04-15T07:40:20.079Z,99396.41
2018-04-15T07:42:54.051Z,99389.52
2018-04-15T07:45:27.297Z,99390.55
2018-04-15T07:48:00.603Z,99390.48
2018-04-15T07:50:34.193Z,99392.63
2018-04-15T07:53:07.861Z,99394.73
2018-04-15T07:55:41.437Z,99397.09
2018-04-15T07:58:16.614Z,99404.94
2018-04-15T08:00:50.491Z,99404.70
2018-04-15T08:03:23.722Z,99410.08
2018-04-15T08:07:27.130Z,99416.18
2018-04-15T08:10:00.371Z,99413.91
2018-04-15T08:12:33.728Z,99416.30
2018-04-15T08:15:07.309Z,99424.67
2018-04-15T08:17:42.302Z,99424.64
2018-04-15T08:20:20.802Z,99422.60
2018-04-15T08:22:55.314Z,99425.64
2018-04-15T08:25:29.215Z,99421.11
2018-04-15T08:28:03.751Z,99405.98
2018-04-15T08:30:38.410Z,99407.58
2018-04-15T08:33:12.710Z,99410.33
2018-04-15T08:35:46.391Z,99408.30
2018-04-15T08:38:20.070Z,99397.23
2018-04-15T08:40:53.757Z,99389.36
2018-04-15T08:43:27.090Z,99378.01
2018-04-15T08:46:02.232Z,99373.61
2018-04-15T08:48:38.783Z,99365.11
2018-04-15T08:51:12.761Z,99364.70
2018-04-15T08:53:47.004Z,99357.05
2018-04-15T08:56:22.865Z,99354.83
2018-04-15T08:58:56.207Z,99346.59
2018-04-15T09:01:29.471Z,99347.89
2018-04-15T09:04:03.994Z,99333.80
2018-04-15T09:06:37.542Z,99338.63
2018-04-15T09:09:11.585Z,99330.37
2018-04-15T09:11:46.357Z,99326.92
2018-04-15T09:14:20.334Z,99325.70
2018-04-15T09:16:55.395Z,99319.62
2018-04-15T09:19:30.214Z,99315.99
2018-04-15T09:22:07.217Z,99307.56
2018-04-15T09:24:41.098Z,99299.47
2018-04-15T09:27:16.309Z,99300.80
2018-04-15T09:29:49.904Z,99296.84
2018-04-15T09:32:23.831Z,99296.02
2018-04-15T09:34:57.404Z,99291.53
2018-04-15T09:37:30.709Z,99285.58
2018-04-15T09:40:07.677Z,99290.31
2018-04-15T09:42:42.234Z,99280.30
2018-04-15T09:45:15.951Z,99279.82
2018-04-15T09:47:57.197Z,99279.41
2018-04-15T09:50:32.097Z,99278.66
2018-04-15T09:53:05.924Z,99271.44
2018-04-15T09:55:39.749Z,99277.83
2018-04-15T09:58:13.068Z,99278.27
2018-04-15T10:00:48.745Z,99273.00
2018-04-15T10:03:22.270Z,99271.23
2018-04-15T10:05:56.594Z,99271.45
2018-04-15T10:08:30.973Z,99273.63
2018-04-15T10:11:04.478Z,99268.77
2018-04-15T10:13:38.315Z,99272.48
2018-04-15T10:16:12.055Z,99270.45
2018-04-15T10:18:45.600Z,99275.44
2018-04-15T10:21:19.538Z,99270.98
2018-04-15T10:23:55.496Z,99273.88
2018-04-15T10:26:30.102Z,99275.97
2018-04-15T10:29:18.637Z,99267.08
2018-04-15T10:31:52.506Z,99257.66
2018-04-15T10:34:28.643Z,99256.37
2018-04-15T10:37:09.352Z,99256.09
2018-04-15T10:39:42.889Z,99253.52
2018-04-15T10:42:19.101Z,99250.63
2018-04-15T10:44:54.693Z,99250.83
2018-04-15T10:47:28.349Z,99243.32
2018-04-15T10:50:01.689Z,99238.16
2018-04-15T10:52:35.510Z,99242.75
2018-04-15T10:55:08.863Z,99245.23
2018-04-15T10:57:42.489Z,99243.47
2018-04-15T11:00:18.063Z,99244.09
2018-04-15T11:02:53.110Z,99246.48
2018-04-15T11:05:26.461Z,99237.89
2018-04-15T11:08:00.029Z,99236.05
2018-04-15T11:10:33.293Z,99233.34
2018-04-15T11:13:06.521Z,99226.51
2018-04-15T11:15:40.059Z,99222.20
2018-04-15T11:18:16.108Z,99213.78
2018-04-15T11:20:50.079Z,99226.66
2018-04-15T11:23:23.376Z,99219.89
2018-04-15T11:25:56.916Z,99218.72
2018-04-15T11:28:30.695Z,99218.59
2018-04-15T11:31:04.142Z,99216.16
2018-04-15T11:33:37.977Z,99216.03
2018-04-15T11:36:11.653Z,99218.09
2018-04-15T11:38:45.069Z,99214.28
2018-04-15T11:41:18.918Z,99211.74
2018-04-15T11:43:57.322Z,99211.45
2018-04-15T11:46:31.259Z,99212.28
2018-04-15T11:49:04.930Z,99201.97
2018-04-15T11:51:40.943Z,99197.91
2018-04-15T11:54:16.414Z,99191.84
2018-04-15T11:56:49.908Z,99194.87
2018-04-15T11:59:23.976Z,99191.45
2018-04-15T12:01:57.981Z,99188.84
2018-04-15T12:04:31.813Z,99186.63
2018-04-15T12:07:05.890Z,99183.70
2018-04-15T12:09:41.114Z,99177.92
2018-04-15T12:12:14.877Z,99180.14
2018-04-15T12:14:48.729Z,99172.92
2018-04-15T12:17:22.335Z,99169.58
2018-04-15T12:19:56.205Z,99171.76
2018-04-15T12:22:30.380Z,99169.66
2018-04-15T12:25:07.187Z,99168.45
2018-04-15T12:27:41.762Z,99155.99
2018-04-15T12:30:17.326Z,99153.48
2018-04-15T12:32:51.958Z,99145.77
2018-04-15T12:35:30.426Z,99137.25
2018-04-15T12:38:08.658Z,99141.61
2018-04-15T12:40:42.562Z,99144.06
2018-04-15T12:43:16.697Z,99144.99
2018-04-15T12:45:50.876Z,99140.25
2018-04-15T12:48:25.397Z,99137.87
2018-04-15T12:50:59.670Z,99133.46
2018-04-15T12:53:45.925Z,99131.94
2018-04-15T12:56:19.700Z,99134.54
2018-04-15T12:58:53.744Z,99132.91
2018-04-15T13:01:27.817Z,99126.30
2018-04-15T13:04:05.680Z,99116.84
2018-04-15T13:06:40.245Z,99117.83
2018-04-15T13:09:14.349Z,99110.66
2018-04-15T13:11:48.511Z,99110.77
2018-04-15T13:14:23.324Z,99101.52
2018-04-15T13:16:56.981Z,99109.16
2018-04-15T13:19:31.203Z,99103.50
2018-04-15T13:22:04.759Z,99098.67
2018-04-15T13:24:39.224Z,99092.72
2018-04-15T13:27:15.118Z,99102.45
2018-04-15T13:29:49.647Z,99096.91
2018-04-15T13:32:26.910Z,99102.64
2018-04-15T13:35:00.541Z,99101.73
2018-04-15T13:37:35.484Z,99096.75
2018-04-15T13:40:09.519Z,99097.12
2018-04-15T13:42:42.985Z,99091.03
2018-04-15T13:45:17.531Z,99096.00
2018-04-15T13:47:51.201Z,99099.55
2018-04-15T13:50:26.118Z,99102.09
2018-04-15T13:53:00.492Z,99108.71
2018-04-15T13:55:35.704Z,99085.55
2018-04-15T13:58:09.257Z,99082.44
2018-04-15T14:00:42.884Z,99074.67
2018-04-15T14:03:18.321Z,99075.53
2018-04-15T14:05:51.840Z,99075.87
2018-04-15T14:08:25.168Z,99066.83
2018-04-15T14:11:03.407Z,99071.06
2018-04-15T14:13:37.954Z,99074.46
2018-04-15T14:16:12.153Z,99070.20
2018-04-15T14:18:45.580Z,99067.38
2018-04-15T14:21:25.395Z,99065.30
2018-04-15T14:24:02.795Z,99065.95
2018-04-15T14:26:37.454Z,99055.13
2018-04-15T14:29:10.947Z,99049.87
2018-04-15T14:31:44.966Z,99051.06
2018-04-15T14:34:18.578Z,99055.31
2018-04-15T14:36:53.695Z,99051.42
2018-04-15T14:39:27.256Z,99042.23
2018-04-15T14:42:08.463Z,99047.41
2018-04-15T14:44:42.689Z,99041.67
2018-04-15T14:47:16.706Z,99034.59
2018-04-15T14:49:50.239Z,99037.86
2018-04-15T14:52:26.004Z,99038.83
2018-04-15T14:55:01.484Z,99046.02
2018-04-15T14:57:35.455Z,99037.01
2018-04-15T15:00:14.044Z,99035.55
2018-04-15T15:02:50.234Z,99024.52
2018-04-15T15:05:25.038Z,99022.77
2018-04-15T15:07:59.178Z,99025.13
2018-04-15T15:10:32.921Z,99021.43
2018-04-15T15:13:07.073Z,99019.77
2018-04-15T15:15:40.445Z,99027.48
2018-04-15T15:18:13.802Z,99027.64
2018-04-15T15:20:48.979Z,99027.39
2018-04-15T15:23:22.821Z,99029.84
2018-04-15T15:25:56.303Z,99030.92
2018-04-15T15:28:30.782Z,99022.64
2018-04-15T15:31:05.432Z,99030.91
2018-04-15T15:33:40.961Z,99028.55
2018-04-15T15:36:14.825Z,99023.23
2018-04-15T15:38:52.712Z,99031.88
2018-04-15T15:41:26.745Z,99028.98
2018-04-15T15:44:00.119Z,99025.75
2018-04-15T15:46:33.615Z,99031.50
2018-04-15T15:49:08.281Z,99037.11
2018-04-15T15:51:42.317Z,99039.66
2018-04-15T15:54:15.979Z,99043.42
2018-04-15T15:56:50.759Z,99041.38
2018-04-15T15:59:24.917Z,99042.57
2018-04-15T16:02:00.304Z,99038.02
2018-04-15T16:07:56.431Z,99045.05
2018-04-15T16:10:30.326Z,99036.17
2018-04-15T16:13:03.858Z,99039.80
2018-04-15T16:15:37.745Z,99040.77
2018-04-15T16:18:11.387Z,99043.56
2018-04-15T16:20:44.777Z,99046.29
2018-04-15T16:23:18.439Z,99046.70
2018-04-15T16:25:52.061Z,99044.80
2018-04-15T16:28:27.235Z,99042.55
2018-04-15T16:31:02.207Z,99036.95
2018-04-15T16:33:37.516Z,99035.47
2018-04-15T16:36:11.040Z,99028.55
2018-04-15T16:38:44.240Z,99015.48
2018-04-15T16:41:19.593Z,99014.36
2018-04-15T16:43:52.924Z,99020.98
2018-04-15T16:46:26.308Z,99020.42
2018-04-15T16:49:00.078Z,99016.53
2018-04-15T16:51:33.649Z,99018.63
2018-04-15T16:54:08.217Z,99013.47
2018-04-15T16:56:41.803Z,99009.87
2018-04-15T16:59:15.156Z,99005.92
2018-04-15T17:01:49.091Z,99016.34
2018-04-15T17:04:23.729Z,99018.95
2018-04-15T17:07:13.929Z,99015.49
2018-04-15T17:09:50.602Z,99020.59
2018-04-15T17:12:24.498Z,99022.67
2018-04-15T17:14:58.344Z,99020.24
2018-04-15T17:17:33.159Z,99014.03
2018-04-15T17:20:06.888Z,99019.22
2018-04-15T17:22:41.204Z,99017.49
2018-04-15T17:25:14.991Z,99007.69
2018-04-15T17:27:51.209Z,99010.19
2018-04-15T17:30:25.095Z,99006.80
2018-04-15T17:32:59.553Z,99007.72
2018-04-15T17:35:33.464Z,99014.48
2018-04-15T17:38:07.427Z,99020.88
2018-04-15T17:40:41.006Z,99022.87
2018-04-15T17:43:17.983Z,99021.14
2018-04-15T17:45:51.695Z,99022.98
2018-04-15T17:48:26.156Z,99031.83
2018-04-15T17:50:59.417Z,99032.58
2018-04-15T17:53:33.053Z,99032.98
2018-04-15T17:56:06.608Z,99030.48
2018-04-15T17:58:40.436Z,99026.52
2018-04-15T18:01:14.638Z,99034.57
2018-04-15T18:03:49.564Z,99025.00
2018-04-15T18:06:23.800Z,99033.63
2018-04-15T18:08:57.315Z,99040.59
2018-04-15T18:11:32.107Z,99043.83
2018-04-15T18:14:05.858Z,99053.79
2018-04-15T18:16:39.385Z,99057.23
2018-04-15T18:19:13.077Z,99061.50
2018-04-15T18:21:46.752Z,99067.50
2018-04-15T18:24:20.314Z,99077.92
2018-04-15T18:26:54.354Z,99082.27
2018-04-15T18:29:30.082Z,99081.20
2018-04-15T18:32:04.671Z,99081.20
2018-04-15T18:34:38.875Z,99096.30
2018-04-15T18:37:13.012Z,99087.80
2018-04-15T18:39:47.815Z,99090.76
2018-04-15T18:42:21.921Z,99089.91
2018-04-15T18:44:56.785Z,99091.71
2018-04-15T18:47:31.727Z,99088.16
2018-04-15T18:50:05.645Z,99091.66
2018-04-15T18:52:39.336Z,99093.09
2018-04-15T18:55:14.219Z,99095.44
2018-04-15T18:57:47.779Z,99095.48
2018-04-15T19:00:22.035Z,99093.67
2018-04-15T19:02:55.582Z,99094.27
2018-04-15T19:05:29.466Z,99092.02
2018-04-15T19:08:04.078Z,99096.01
2018-04-15T19:10:37.675Z,99096.47
2018-04-15T19:13:11.565Z,99102.75
2018-04-15T19:15:50.146Z,99102.46
2018-04-15T19:18:24.774Z,99098.50
2018-04-15T19:20:58.541Z,99092.30
2018-04-15T19:23:32.535Z,99090.30
2018-04-15T19:26:06.059Z,99105.41
2018-04-15T19:28:41.017Z,99092.63
2018-04-15T19:31:24.570Z,99093.73
2018-04-15T19:33:59.970Z,99101.66
2018-04-15T19:36:33.624Z,99100.89
2018-04-15T19:39:08.929Z,99101.20
2018-04-15T19:41:43.392Z,99094.39
2018-04-15T19:44:23.399Z,99105.39
2018-04-15T19:47:06.053Z,99100.52
2018-04-15T19:49:42.393Z,99103.23
2018-04-15T19:52:16.683Z,99101.67
2018-04-15T19:54:51.031Z,99100.77
2018-04-15T19:57:28.713Z,99099.02
2018-04-15T20:00:08.313Z,99085.93
2018-04-15T20:02:52.510Z,99087.91
2018-04-15T20:05:33.248Z,99086.88
2018-04-15T20:08:08.322Z,99087.91
2018-04-15T20:10:43.067Z,99092.33
2018-04-15T20:13:17.202Z,99084.58
2018-04-15T20:15:50.787Z,99085.06
2018-04-15T20:21:05.882Z,99080.23
2018-04-15T20:23:40.242Z,99074.34
2018-04-15T20:26:15.287Z,99068.63
2018-04-15T20:28:59.200Z,99064.50
2018-04-15T20:31:34.766Z,99070.27
2018-04-15T20:34:10.691Z,99074.23
2018-04-15T20:36:46.169Z,99078.56
2018-04-15T20:39:20.318Z,99076.23
2018-04-15T20:41:53.917Z,99072.63
2018-04-15T20:44:28.493Z,99077.50
2018-04-15T20:47:02.415Z,99076.85
2018-04-15T20:49:35.897Z,99071.98
2018-04-15T20:52:09.716Z,99070.63
2018-04-15T20:54:43.738Z,99075.85
2018-04-15T20:57:17.625Z,99083.94
2018-04-15T20:59:51.319Z,99081.63
2018-04-15T21:02:26.635Z,99081.06
2018-04-15T21:05:00.090Z,99074.63
2018-04-15T21:07:33.527Z,99071.34
2018-04-15T21:10:09.499Z,99074.67
2018-04-15T21:12:43.285Z,99069.61
2018-04-15T21:15:17.518Z,99081.88
2018-04-15T21:17:51.546Z,99080.04
2018-04-15T21:20:25.177Z,99081.39
2018-04-15T21:22:58.741Z,99082.38
2018-04-15T21:25:34.520Z,99087.19
2018-04-15T21:28:08.183Z,99099.22
2018-04-15T21:30:42.170Z,99096.28
2018-04-15T21:33:16.381Z,99093.64
2018-04-15T21:35:50.070Z,99094.96
2018-04-15T21:38:24.206Z,99092.97
2018-04-15T21:40:57.876Z,99088.08
2018-04-15T21:43:35.110Z,99090.72
2018-04-15T21:48:49.321Z,99054.72
2018-04-15T21:51:22.911Z,99072.30
2018-04-15T21:53:58.079Z,99079.20
2018-04-15T21:56:32.620Z,99082.88
2018-04-15T21:59:06.671Z,99075.30
2018-04-15T22:01:40.054Z,99085.30
2018-04-15T22:04:13.988Z,99091.72
2018-04-15T22:06:47.596Z,99090.41
2018-04-15T22:09:21.133Z,99095.38
2018-04-15T22:12:05.153Z,99094.76
2018-04-15T22:14:45.869Z,99090.82
2018-04-15T22:17:19.982Z,99088.81
2018-04-15T22:19:53.871Z,99088.56
2018-04-15T22:22:27.337Z,99081.07
2018-04-15T22:25:01.407Z,99085.42
2018-04-15T22:27:35.061Z,99076.03
2018-04-15T22:30:09.675Z,99075.62
2018-04-15T22:32:43.798Z,99073.48
2018-04-15T22:35:19.433Z,99074.72
2018-04-15T22:37:53.036Z,99074.46
2018-04-15T22:40:26.534Z,99073.50
2018-04-15T22:43:00.967Z,99071.72
2018-04-15T22:45:34.610Z,99074.63
2018-04-15T22:48:08.353Z,99066.57
2018-04-15T22:50:42.206Z,99074.28
2018-04-15T22:53:15.679Z,99071.05
2018-04-15T22:55:50.516Z,99073.73
2018-04-15T22:58:28.369Z,99064.13
2018-04-15T23:01:02.287Z,99067.19
2018-04-15T23:03:35.792Z,99068.61
2018-04-15T23:06:09.754Z,99065.57
2018-04-15T23:08:45.016Z,99054.25
2018-04-15T23:11:18.667Z,99051.62
2018-04-15T23:13:53.612Z,99050.51
2018-04-15T23:16:31.767Z,99043.20
2018-04-15T23:19:06.099Z,99042.78
2018-04-15T23:24:11.123Z,99030.08
2018-04-15T23:26:52.514Z,99023.27
2018-04-15T23:29:27.825Z,99018.92
2018-04-15T23:32:01.648Z,99031.87
2018-04-15T23:34:35.182Z,99033.15
2018-04-15T23:37:08.797Z,99032.95
2018-04-15T23:39:42.597Z,99038.39
2018-04-15T23:42:16.122Z,99038.50
2018-04-15T23:44:50.151Z,99038.28
2018-04-15T23:47:24.245Z,99040.05
2018-04-15T23:49:58.140Z,99044.83
2018-04-15T23:52:31.912Z,99037.31
2018-04-15T23:55:06.052Z,99043.92
2018-04-15T23:57:39.696Z,99039.67
